createdAt,value
2022-07-25T00:01:09.574Z,58.91
2022-07-25T00:04:25.228Z,58.87
2022-07-25T00:06:52.018Z,57.79
2022-07-25T00:09:57.505Z,57.54
2022-07-25T00:12:24.588Z,56.82
2022-07-25T00:14:51.483Z,56.66
2022-07-25T00:17:17.990Z,56.85
2022-07-25T00:19:49.314Z,56.95
2022-07-25T00:22:16.162Z,57.34
2022-07-25T00:24:48.337Z,56.46
2022-07-25T00:27:16.211Z,56.77
2022-07-25T00:29:42.846Z,55.20
2022-07-25T00:32:09.941Z,56.63
2022-07-25T00:34:38.639Z,57.22
2022-07-25T00:37:07.324Z,58.02
2022-07-25T00:39:40.528Z,59.01
2022-07-25T00:42:07.567Z,58.79
2022-07-25T00:44:56.653Z,59.51
2022-07-25T00:47:23.376Z,58.70
2022-07-25T00:49:50.124Z,59.26
2022-07-25T00:52:24.823Z,58.69
2022-07-25T00:54:51.569Z,59.37
2022-07-25T00:57:24.940Z,58.78
2022-07-25T00:59:51.479Z,58.51
2022-07-25T01:02:18.198Z,58.20
2022-07-25T01:04:59.325Z,57.81
2022-07-25T01:07:26.569Z,57.60
2022-07-25T01:10:19.304Z,57.31
2022-07-25T01:15:34.665Z,55.45
2022-07-25T01:18:02.694Z,54.40
2022-07-25T01:20:33.883Z,55.32
2022-07-25T01:23:16.314Z,55.88
2022-07-25T01:25:43.031Z,56.75
2022-07-25T01:28:09.869Z,55.98
2022-07-25T01:31:33.341Z,55.30
2022-07-25T01:34:02.873Z,52.17
2022-07-25T01:36:30.212Z,51.23
2022-07-25T01:39:01.374Z,49.58
2022-07-25T01:41:28.099Z,48.17
2022-07-25T01:43:55.002Z,48.11
2022-07-25T01:47:14.111Z,46.74
2022-07-25T01:49:41.009Z,46.74
2022-07-25T01:56:31.855Z,45.45
2022-07-25T01:58:59.195Z,44.47
2022-07-25T02:01:57.334Z,44.66
2022-07-25T02:04:27.443Z,44.36
2022-07-25T02:06:54.244Z,44.22
2022-07-25T02:09:21.233Z,44.02
2022-07-25T02:12:37.801Z,43.84
2022-07-25T02:15:35.994Z,44.19
2022-07-25T02:18:02.809Z,44.39
2022-07-25T02:20:29.603Z,44.51
2022-07-25T02:23:12.577Z,44.48
2022-07-25T02:25:39.327Z,44.29
2022-07-25T02:28:06.288Z,44.29
2022-07-25T02:30:47.591Z,43.88
2022-07-25T02:33:14.826Z,43.49
2022-07-25T02:35:41.825Z,43.62
2022-07-25T02:38:27.941Z,43.70
2022-07-25T02:40:54.576Z,43.64
2022-07-25T02:43:45.381Z,43.71
2022-07-25T02:46:12.333Z,43.69
2022-07-25T02:49:03.472Z,43.75
2022-07-25T02:51:30.667Z,43.33
2022-07-25T02:53:59.868Z,42.92
2022-07-25T02:56:30.231Z,42.87
2022-07-25T02:58:59.818Z,43.42
2022-07-25T03:01:30.241Z,42.89
2022-07-25T03:04:03.502Z,43.16
2022-07-25T03:06:30.997Z,43.14
2022-07-25T03:09:13.181Z,43.02
2022-07-25T03:11:40.107Z,43.42
2022-07-25T03:14:17.806Z,43.32
2022-07-25T03:16:44.751Z,43.49
2022-07-25T03:19:13.184Z,43.31
2022-07-25T03:22:02.946Z,43.04
2022-07-25T03:24:29.858Z,43.32
2022-07-25T03:26:58.835Z,43.09
2022-07-25T03:29:25.590Z,42.75
2022-07-25T03:32:04.977Z,43.11
2022-07-25T03:34:32.140Z,42.66
2022-07-25T03:37:07.176Z,42.74
2022-07-25T03:39:33.884Z,42.73
2022-07-25T03:42:00.632Z,42.47
2022-07-25T03:45:02.612Z,42.12
2022-07-25T03:47:29.887Z,42.20
2022-07-25T03:49:57.736Z,41.78
2022-07-25T03:53:10.502Z,42.06
2022-07-25T03:55:39.729Z,41.68
2022-07-25T03:58:28.301Z,42.04
2022-07-25T04:00:54.876Z,42.02
2022-07-25T04:03:29.060Z,41.63
2022-07-25T04:06:16.511Z,41.25
2022-07-25T04:08:43.344Z,41.30
2022-07-25T04:11:12.238Z,41.35
2022-07-25T04:13:38.821Z,41.10
2022-07-25T04:16:29.041Z,41.21
2022-07-25T04:18:57.537Z,40.86
2022-07-25T04:21:25.269Z,41.09
2022-07-25T04:24:00.227Z,40.90
2022-07-25T04:26:27.352Z,41.14
2022-07-25T04:28:54.701Z,40.88
2022-07-25T04:31:24.791Z,40.90
2022-07-25T04:33:51.770Z,41.37
2022-07-25T04:36:21.924Z,41.09
2022-07-25T04:38:57.764Z,41.30
2022-07-25T04:41:25.136Z,40.69
2022-07-25T04:43:58.042Z,40.62
2022-07-25T04:46:25.104Z,40.55
2022-07-25T04:48:54.666Z,40.96
2022-07-25T04:51:21.477Z,40.77
2022-07-25T04:53:55.250Z,40.38
2022-07-25T04:56:22.780Z,40.41
2022-07-25T04:59:06.353Z,40.64
2022-07-25T05:01:34.699Z,40.84
2022-07-25T05:04:01.906Z,40.69
2022-07-25T05:06:28.989Z,40.69
2022-07-25T05:09:10.806Z,40.53
2022-07-25T05:11:37.612Z,40.16
2022-07-25T05:14:19.020Z,40.13
2022-07-25T05:16:48.711Z,39.89
2022-07-25T05:19:30.141Z,40.23
2022-07-25T05:22:00.141Z,40.07
2022-07-25T05:24:27.646Z,39.93
2022-07-25T05:26:55.716Z,39.67
2022-07-25T05:29:30.957Z,40.29
2022-07-25T05:32:01.447Z,39.64
2022-07-25T05:34:37.667Z,39.59
2022-07-25T05:37:05.202Z,39.88
2022-07-25T05:39:45.612Z,39.43
2022-07-25T05:42:13.648Z,39.71
2022-07-25T05:44:48.593Z,39.00
2022-07-25T05:47:16.307Z,39.08
2022-07-25T05:49:43.429Z,38.75
2022-07-25T05:52:13.439Z,38.95
2022-07-25T05:54:45.616Z,38.67
2022-07-25T05:57:15.845Z,38.66
2022-07-25T05:59:45.604Z,38.38
2022-07-25T06:02:15.512Z,38.79
2022-07-25T06:04:49.874Z,38.71
2022-07-25T06:07:22.936Z,38.35
2022-07-25T06:09:50.268Z,38.27
2022-07-25T06:12:19.347Z,38.33
2022-07-25T06:14:46.768Z,38.78
2022-07-25T06:17:14.945Z,38.70
2022-07-25T06:20:05.398Z,38.43
2022-07-25T06:22:33.968Z,37.75
2022-07-25T06:25:22.200Z,38.46
2022-07-25T06:27:49.996Z,38.53
2022-07-25T06:30:39.253Z,37.81
2022-07-25T06:33:06.510Z,38.12
2022-07-25T06:36:32.362Z,37.36
2022-07-25T06:39:21.923Z,37.23
2022-07-25T06:41:49.451Z,36.98
2022-07-25T06:44:16.295Z,36.92
2022-07-25T06:47:01.468Z,37.52
2022-07-25T06:49:28.716Z,36.91
2022-07-25T06:51:56.907Z,37.17
2022-07-25T06:54:32.987Z,37.13
2022-07-25T06:57:00.634Z,36.65
2022-07-25T06:59:27.761Z,36.48
2022-07-25T07:01:57.038Z,36.14
2022-07-25T07:04:23.771Z,36.60
2022-07-25T07:07:26.924Z,36.71
2022-07-25T07:09:54.050Z,36.54
2022-07-25T07:12:23.774Z,36.27
2022-07-25T07:15:47.966Z,35.62
2022-07-25T07:18:15.464Z,35.12
2022-07-25T07:20:50.358Z,35.88
2022-07-25T07:23:18.025Z,35.71
2022-07-25T07:25:47.281Z,35.17
2022-07-25T07:28:57.444Z,34.53
2022-07-25T07:31:27.260Z,34.41
2022-07-25T07:34:08.064Z,34.46
2022-07-25T07:36:38.452Z,34.79
2022-07-25T07:39:06.855Z,34.09
2022-07-25T07:41:36.303Z,34.66
2022-07-25T07:44:03.227Z,34.30
2022-07-25T07:46:30.241Z,33.88
2022-07-25T07:48:58.930Z,34.10
2022-07-25T07:51:28.891Z,33.88
2022-07-25T07:57:44.495Z,33.10
2022-07-25T08:00:16.442Z,33.13
2022-07-25T08:02:49.712Z,33.04
2022-07-25T08:06:03.606Z,32.50
2022-07-25T08:08:32.041Z,33.04
2022-07-25T08:11:16.344Z,32.91
2022-07-25T08:13:44.360Z,32.36
2022-07-25T08:16:14.541Z,31.99
2022-07-25T08:18:52.857Z,32.49
2022-07-25T08:21:20.902Z,32.25
2022-07-25T08:23:59.063Z,31.93
2022-07-25T08:27:06.570Z,31.56
2022-07-25T08:29:42.063Z,31.86
2022-07-25T08:32:12.089Z,31.30
2022-07-25T08:34:42.342Z,31.22
2022-07-25T08:37:31.181Z,31.38
2022-07-25T08:39:59.700Z,31.12
2022-07-25T08:42:40.603Z,30.74
2022-07-25T08:48:00.979Z,31.04
2022-07-25T08:50:30.802Z,30.28
2022-07-25T08:53:30.456Z,30.07
2022-07-25T08:55:52.335Z,30.96
2022-07-25T08:58:37.224Z,30.43
2022-07-25T09:01:08.650Z,31.21
2022-07-25T09:03:44.802Z,30.78
2022-07-25T09:06:17.571Z,30.64
2022-07-25T09:08:59.861Z,30.52
2022-07-25T09:11:31.344Z,30.25
2022-07-25T09:14:26.664Z,29.83
2022-07-25T09:16:56.909Z,29.99
2022-07-25T09:19:29.354Z,30.17
2022-07-25T09:22:13.063Z,29.64
2022-07-25T09:24:45.865Z,30.11
2022-07-25T09:27:18.230Z,30.02
2022-07-25T09:30:29.399Z,30.77
2022-07-25T09:33:05.245Z,31.02
2022-07-25T09:35:41.311Z,30.81
2022-07-25T09:38:21.309Z,30.44
2022-07-25T09:41:01.806Z,30.48
2022-07-25T09:43:45.093Z,29.62
2022-07-25T09:46:15.460Z,29.85
2022-07-25T09:49:05.332Z,29.97
2022-07-25T09:51:47.498Z,29.31
2022-07-25T09:54:18.397Z,29.85
2022-07-25T09:56:49.632Z,29.59
2022-07-25T09:59:19.688Z,29.67
2022-07-25T10:02:01.303Z,29.50
2022-07-25T10:04:51.017Z,29.20
2022-07-25T10:07:22.228Z,29.91
2022-07-25T10:10:26.856Z,29.92
2022-07-25T10:13:30.404Z,29.91
2022-07-25T10:16:00.698Z,29.54
2022-07-25T10:23:10.515Z,29.32
2022-07-25T10:25:38.035Z,29.75
2022-07-25T10:28:10.257Z,29.97
2022-07-25T10:30:41.202Z,29.56
2022-07-25T10:37:19.980Z,29.94
2022-07-25T10:39:48.920Z,29.51
2022-07-25T10:47:56.135Z,29.70
2022-07-25T10:50:53.514Z,29.36
2022-07-25T10:53:12.953Z,29.37
2022-07-25T10:56:26.928Z,29.12
2022-07-25T10:59:02.131Z,29.54
2022-07-25T11:01:32.272Z,29.34
2022-07-25T11:04:03.558Z,28.53
2022-07-25T11:06:42.775Z,29.62
2022-07-25T11:10:01.504Z,28.50
2022-07-25T11:12:30.166Z,28.70
2022-07-25T11:15:14.461Z,28.75
2022-07-25T11:19:12.791Z,28.37
2022-07-25T11:21:56.912Z,28.06
2022-07-25T11:24:37.608Z,28.73
2022-07-25T11:27:12.191Z,28.86
2022-07-25T11:29:43.003Z,28.71
2022-07-25T11:32:16.097Z,29.47
2022-07-25T11:35:06.640Z,28.81
2022-07-25T11:37:41.277Z,29.31
2022-07-25T11:40:19.892Z,29.56
2022-07-25T11:43:04.218Z,29.69
2022-07-25T11:45:34.890Z,29.86
2022-07-25T11:48:23.852Z,29.93
2022-07-25T11:50:53.750Z,29.95
2022-07-25T11:54:05.187Z,29.56
2022-07-25T11:59:21.215Z,29.83
2022-07-25T12:05:41.415Z,29.79
2022-07-25T12:08:25.554Z,29.70
2022-07-25T12:10:52.501Z,29.58
2022-07-25T12:13:31.488Z,29.58
2022-07-25T12:16:00.983Z,29.91
2022-07-25T12:18:58.155Z,29.78
2022-07-25T12:21:28.251Z,29.58
2022-07-25T12:23:57.303Z,28.88
2022-07-25T12:26:30.809Z,28.09
2022-07-25T12:29:13.663Z,28.24
2022-07-25T12:31:42.672Z,28.66
2022-07-25T12:34:52.462Z,28.27
2022-07-25T12:37:22.383Z,28.06
2022-07-25T12:40:01.634Z,28.34
2022-07-25T12:42:33.119Z,27.00
2022-07-25T12:45:05.134Z,26.97
2022-07-25T12:48:17.013Z,28.16
2022-07-25T12:50:54.494Z,28.45
2022-07-25T12:53:24.543Z,28.31
2022-07-25T12:55:55.585Z,28.53
2022-07-25T12:59:05.933Z,28.56
2022-07-25T13:01:38.998Z,28.62
2022-07-25T13:04:10.667Z,28.18
2022-07-25T13:10:42.724Z,28.41
2022-07-25T13:13:12.672Z,29.82
2022-07-25T13:23:28.213Z,29.83
2022-07-25T13:29:07.061Z,29.94
2022-07-25T13:32:17.903Z,30.39
2022-07-25T13:34:51.119Z,30.72
2022-07-25T13:38:02.163Z,30.36
2022-07-25T13:40:31.043Z,30.80
2022-07-25T13:43:29.668Z,31.41
2022-07-25T13:46:02.815Z,31.46
2022-07-25T13:48:33.693Z,30.30
2022-07-25T13:51:07.316Z,30.50
2022-07-25T13:53:59.459Z,31.22
2022-07-25T13:57:10.259Z,31.40
2022-07-25T13:59:43.272Z,30.51
2022-07-25T14:02:19.227Z,31.48
2022-07-25T14:05:02.154Z,30.79
2022-07-25T14:07:38.740Z,30.83
2022-07-25T14:10:08.729Z,30.57
2022-07-25T14:12:44.998Z,30.95
2022-07-25T14:15:13.159Z,31.75
2022-07-25T14:18:59.157Z,32.09
2022-07-25T14:21:33.079Z,34.22
2022-07-25T14:24:17.712Z,35.44
2022-07-25T14:26:44.607Z,35.46
2022-07-25T14:31:57.825Z,36.62
2022-07-25T14:34:44.017Z,38.02
2022-07-25T14:37:51.409Z,38.63
2022-07-25T14:40:27.246Z,40.38
2022-07-25T14:43:19.519Z,45.83
2022-07-25T14:45:53.807Z,58.72
2022-07-25T15:05:00.225Z,66.35
2022-07-25T15:07:40.421Z,62.87
2022-07-25T15:10:17.551Z,58.12
2022-07-25T15:16:18.668Z,53.28
2022-07-25T15:19:13.395Z,53.72
2022-07-25T15:22:16.290Z,53.48
2022-07-25T16:00:12.626Z,55.81
2022-07-25T16:02:44.979Z,64.53
2022-07-25T16:29:24.747Z,94.39
2022-07-25T16:31:55.510Z,93.26
2022-07-25T16:34:29.173Z,89.37
2022-07-25T16:37:00.826Z,90.92
2022-07-25T16:39:32.117Z,90.73
2022-07-25T16:42:00.621Z,92.85
2022-07-25T16:44:50.552Z,89.79
2022-07-25T16:47:24.711Z,88.23
2022-07-25T16:49:55.284Z,93.41
2022-07-25T16:52:22.955Z,88.38
2022-07-25T16:54:50.345Z,88.57
2022-07-25T16:57:17.619Z,88.51
2022-07-25T16:59:47.724Z,86.73
2022-07-25T17:02:14.890Z,85.28
2022-07-25T17:04:41.854Z,85.97
2022-07-25T17:07:10.631Z,85.10
2022-07-25T17:09:37.634Z,84.25
2022-07-25T17:12:11.918Z,82.85
2022-07-25T17:14:38.713Z,81.01
2022-07-25T17:17:14.291Z,82.57
2022-07-25T17:19:41.401Z,84.20
2022-07-25T17:22:10.168Z,84.18
2022-07-25T17:24:40.885Z,85.75
2022-07-25T17:27:08.986Z,85.38
2022-07-25T17:29:57.594Z,88.24
2022-07-25T17:32:29.700Z,86.90
2022-07-25T17:34:58.290Z,84.85
2022-07-25T17:37:41.853Z,87.25
2022-07-25T17:40:10.299Z,83.09
2022-07-25T17:42:44.919Z,82.48
2022-07-25T17:45:18.444Z,83.98
2022-07-25T17:47:48.657Z,83.83
2022-07-25T17:50:32.803Z,82.54
2022-07-25T17:53:02.488Z,83.42
2022-07-25T17:55:39.175Z,83.69
2022-07-25T17:58:10.152Z,83.65
2022-07-25T18:00:38.860Z,84.12
2022-07-25T18:03:15.157Z,82.74
2022-07-25T18:05:44.609Z,82.28
2022-07-25T18:08:15.449Z,83.89
2022-07-25T18:10:53.976Z,81.91
2022-07-25T18:13:22.321Z,79.52
2022-07-25T18:15:54.033Z,78.32
2022-07-25T18:18:21.022Z,77.68
2022-07-25T18:21:15.539Z,76.82
2022-07-25T18:23:45.542Z,78.44
2022-07-25T18:26:12.375Z,77.51
2022-07-25T18:28:47.836Z,76.92
2022-07-25T18:31:14.617Z,74.96
2022-07-25T18:33:42.102Z,75.01
2022-07-25T18:36:12.659Z,75.95
2022-07-25T18:38:48.243Z,75.32
2022-07-25T18:41:29.386Z,74.44
2022-07-25T18:44:18.480Z,76.59
2022-07-25T18:46:48.070Z,77.21
2022-07-25T18:49:30.334Z,77.17
2022-07-25T18:52:00.712Z,76.12
2022-07-25T18:54:30.881Z,74.59
2022-07-25T18:57:01.372Z,73.57
2022-07-25T18:59:32.743Z,74.41
2022-07-25T19:02:03.240Z,75.82
2022-07-25T19:04:35.622Z,75.10
2022-07-25T19:07:35.344Z,74.90
2022-07-25T19:10:07.365Z,74.97
2022-07-25T19:12:37.991Z,75.00
2022-07-25T19:15:08.386Z,74.80
2022-07-25T19:17:38.713Z,75.33
2022-07-25T19:20:09.701Z,75.68
2022-07-25T19:22:36.312Z,74.91
2022-07-25T19:25:27.825Z,75.50
2022-07-25T19:27:55.053Z,75.15
2022-07-25T19:30:30.534Z,75.08
2022-07-25T19:32:57.526Z,74.52
2022-07-25T19:35:41.628Z,74.92
2022-07-25T19:38:13.011Z,74.83
2022-07-25T19:40:46.122Z,75.33
2022-07-25T19:43:15.665Z,74.58
2022-07-25T19:45:45.113Z,74.65
2022-07-25T19:48:12.407Z,75.93
2022-07-25T19:50:42.077Z,77.11
2022-07-25T19:53:32.570Z,76.82
2022-07-25T19:56:01.852Z,75.75
2022-07-25T19:58:31.506Z,76.30
2022-07-25T20:01:02.654Z,75.95
2022-07-25T20:03:37.804Z,75.83
2022-07-25T20:06:08.090Z,76.90
2022-07-25T20:08:39.725Z,75.26
2022-07-25T20:11:14.913Z,74.51
2022-07-25T20:13:45.428Z,75.03
2022-07-25T20:16:15.740Z,75.12
2022-07-25T20:18:45.942Z,74.17
2022-07-25T20:21:20.449Z,74.13
2022-07-25T20:23:52.968Z,74.20
2022-07-25T20:26:24.750Z,73.84
2022-07-25T20:28:55.474Z,74.42
2022-07-25T20:31:24.995Z,73.72
2022-07-25T20:33:55.591Z,73.07
2022-07-25T20:36:24.887Z,73.04
2022-07-25T20:38:57.384Z,72.71
2022-07-25T20:41:25.878Z,72.36
2022-07-25T20:44:32.534Z,72.17
2022-07-25T20:47:06.422Z,72.63
2022-07-25T20:49:46.185Z,72.02
2022-07-25T20:52:22.309Z,72.24
2022-07-25T20:54:56.239Z,71.54
2022-07-25T20:57:50.480Z,71.43
2022-07-25T21:00:21.984Z,71.80
2022-07-25T21:02:54.602Z,72.46
2022-07-25T21:05:31.099Z,73.09
2022-07-25T21:08:06.199Z,72.55
2022-07-25T21:10:48.386Z,72.71
2022-07-25T21:13:25.207Z,74.13
2022-07-25T21:16:02.181Z,73.42
2022-07-25T21:18:38.545Z,72.13
2022-07-25T21:21:12.485Z,72.58
2022-07-25T21:23:44.901Z,75.05
2022-07-25T21:26:19.860Z,75.28
2022-07-25T21:28:56.891Z,74.86
2022-07-25T21:31:30.183Z,73.87
2022-07-25T21:34:04.255Z,74.59
2022-07-25T21:36:40.349Z,73.92
2022-07-25T21:39:22.817Z,74.62
2022-07-25T21:42:11.325Z,74.37
2022-07-25T21:44:51.525Z,73.96
2022-07-25T21:47:24.033Z,74.41
2022-07-25T21:53:42.457Z,75.96
2022-07-25T21:56:19.975Z,76.51
2022-07-25T21:58:56.081Z,75.59
2022-07-25T22:01:39.054Z,76.99
2022-07-25T22:04:21.237Z,77.28
2022-07-25T22:07:14.313Z,76.67
2022-07-25T22:09:44.234Z,76.13
2022-07-25T22:12:26.399Z,76.59
2022-07-25T22:15:11.958Z,76.36
2022-07-25T22:17:54.923Z,75.03
2022-07-25T22:20:28.284Z,74.87
2022-07-25T22:23:01.181Z,75.40
2022-07-25T22:25:37.520Z,79.07
2022-07-25T22:28:15.279Z,77.26
2022-07-25T22:31:06.591Z,78.07
2022-07-25T22:37:48.592Z,76.91
2022-07-25T22:40:45.291Z,76.10
2022-07-25T22:43:16.354Z,75.91
2022-07-25T22:46:02.951Z,76.63
2022-07-25T22:48:39.807Z,75.71
2022-07-25T22:51:24.369Z,77.53
2022-07-25T22:54:14.401Z,75.72
2022-07-25T22:56:50.817Z,74.87
2022-07-25T22:59:41.190Z,73.87
2022-07-25T23:02:38.710Z,74.05
2022-07-25T23:05:14.684Z,73.35
2022-07-25T23:07:54.109Z,74.20
2022-07-25T23:10:24.620Z,73.73
2022-07-25T23:13:10.983Z,73.38
2022-07-25T23:18:31.307Z,75.18
2022-07-25T23:21:20.784Z,74.79
2022-07-25T23:23:50.737Z,75.48
2022-07-25T23:26:25.583Z,74.63
2022-07-25T23:28:55.138Z,74.10
2022-07-25T23:31:39.120Z,74.73
2022-07-25T23:34:19.488Z,76.86
2022-07-25T23:36:52.678Z,76.74
2022-07-25T23:39:22.659Z,75.18
2022-07-25T23:42:01.046Z,75.77
2022-07-25T23:44:36.569Z,75.65
2022-07-25T23:47:09.956Z,75.43
2022-07-25T23:49:46.265Z,76.38
2022-07-25T23:52:29.683Z,74.58
2022-07-25T23:55:03.757Z,75.42
2022-07-25T23:57:37.256Z,74.50
